Aeroporto :
LOGIN :

Iscrizione | Disclaimer

   EN    FR    IT 

 










Sommario :    VFR   VFR Marginale   IFR   IFR Intensivo   IFR Molto Intensivo
Visibilità : 
Base nubi : 
>= 8 km
>= 3000ft
5 / 8 km
1000 / 3000 ft
1500m / 5 km
500 / 1000 ft
800 / 1500m
200 / 500 ft
< 800m
< 200 ft
Simboli :   Temporali  Nebbia  Neve Forte  Precipitazioni Forti  Vento > 20 kt
SIGMETs :   Varie  Temporali  Ghiacco  Turbolenza  Onda orograficha  Ceneri Vulcaniche






- Altitudine del aeroporto : 353 ft
- Codice IATA : ZAG


LDZA - Zagreb Pleso

ULTIMO METAR :
  • 240800Z VRB02KT 9999 -RA FEW013 BKN027 OVC045 07/05 Q1007 NOSIG

METARs OBSOLETI :
  • 240730Z 02003KT 310V080 9999 -RA FEW010 BKN023 OVC038 07/05 Q1007 NOSIG
  • 240700Z VRB01KT 9999 -RA FEW008 BKN020 OVC035 07/05 Q1007 NOSIG
  • 240630Z VRB02KT 9999 -RA FEW008 BKN023 OVC037 06/05 Q1007 NOSIG
  • 240600Z 22003KT 170V240 9999 -RA FEW008 BKN025 OVC035 06/05 Q1006 NOSIG
  • 240530Z 21003KT 170V240 9999 FEW010 SCT025 OVC035 06/05 Q1006 NOSIG
  • 240500Z 21004KT 170V290 9999 FEW013 SCT025 OVC033 06/05 Q1006 NOSIG
  • 240430Z VRB02KT 9999 FEW013 BKN030 06/05 Q1006 NOSIG
  • 240400Z VRB01KT 9999 FEW013 BKN030 06/05 Q1006 NOSIG
  • 240330Z 22002KT 9999 -DZ FEW013 OVC025 06/05 Q1006 NOSIG

TAF TAF LDZA
Valido dal 24 a 06 ore il 25 a 06 ore UTC


240525Z 2406/2506 25004KT 9999 BKN020 TX10/2413Z TN04/2504Z
PROB30
TEMPO 2413/2417 SHRA FEW020TCU BKN030
ATIS : +385 1 6-259-214



MetMap, La meteo Aeronautica in un colpo d'occhio ! - Copyright ORBIFLY Dicembre 2007 - Disclaimer

ORBIFLY MET'MAP TEAM :

Programmazione e sviluppo : Alexandra Zaïnal
Concezione : Baudouin d'Aumeries
Supporto tecnico e logistico : Manuel Goepfert
Aiuto : Marc-Olivier Méhu
Aiuto per la traduzione : Arnaldo La Scala




FONTI E CREDITI :

   NOAA